DLH9MA EPPO-EDDF
Flight info
| Callsign | DLH9MA |
|---|---|
| Flight time | 1h 0m |
| Altitude | 32000 |
| Route | ELSUP Z181 XIGRI DCT KUBOG DCT NIMAB T171 MAIXE/N0418F300 T171 LASTO T178 ROBEL/N0381F240 T178 KERAX KERAX5A |
| Aircraft | A319/M-SDE3FGHIRWY/LB1 |
Departure
| Time | 2026-05-07 08:57 |
|---|---|
| Airport | Poznań-Ławica Airport (EPPO) |
Arrival
| Time | 2026-05-07 09:57 |
|---|---|
| Airport | Frankfurt Main Airport (EDDF) |
| Time | Latitude | Longitude | Altitude | Speed | Heading |
|---|---|---|---|---|---|
| 2026-05-07 08:53 | 52.41653 | 16.82748 | 305 ft | 2 kts | 159° |
| 2026-05-07 08:53 | 52.41666 | 16.82734 | 304 ft | 2 kts | 135° |
| 2026-05-07 08:53 | 52.41673 | 16.82722 | 303 ft | 0 kts | 92° |
| 2026-05-07 08:54 | 52.41672 | 16.82726 | 303 ft | 0 kts | 102° |
| 2026-05-07 08:54 | 52.41672 | 16.82744 | 304 ft | 7 kts | 90° |
| 2026-05-07 08:54 | 52.41661 | 16.82885 | 303 ft | 17 kts | 101° |
| 2026-05-07 08:54 | 52.41634 | 16.83083 | 302 ft | 18 kts | 104° |
| 2026-05-07 08:55 | 52.41604 | 16.83293 | 301 ft | 20 kts | 102° |
| 2026-05-07 08:55 | 52.41575 | 16.83518 | 301 ft | 21 kts | 101° |
| 2026-05-07 08:55 | 52.41566 | 16.83757 | 299 ft | 21 kts | 94° |
| 2026-05-07 08:55 | 52.41623 | 16.83969 | 298 ft | 22 kts | 40° |
| 2026-05-07 08:56 | 52.41762 | 16.84059 | 299 ft | 21 kts | 20° |
| 2026-05-07 08:56 | 52.41848 | 16.83959 | 301 ft | 19 kts | 288° |
| 2026-05-07 08:56 | 52.41952 | 16.83417 | 302 ft | 89 kts | 287° |
| 2026-05-07 08:56 | 52.42213 | 16.82087 | 319 ft | 152 kts | 289° |
| 2026-05-07 08:57 | 52.42533 | 16.80450 | 956 ft | 150 kts | 290° |
| 2026-05-07 08:57 | 52.42848 | 16.78812 | 1667 ft | 154 kts | 291° |
| 2026-05-07 08:57 | 52.43194 | 16.77030 | 2093 ft | 175 kts | 290° |
| 2026-05-07 08:57 | 52.43588 | 16.74995 | 2514 ft | 199 kts | 290° |
| 2026-05-07 08:58 | 52.44027 | 16.72714 | 2924 ft | 219 kts | 289° |
| 2026-05-07 08:58 | 52.44496 | 16.70201 | 3459 ft | 238 kts | 284° |
| 2026-05-07 08:58 | 52.44790 | 16.67409 | 4114 ft | 257 kts | 279° |
| 2026-05-07 08:58 | 52.45030 | 16.64469 | 5096 ft | 262 kts | 277° |
| 2026-05-07 08:59 | 52.45253 | 16.61481 | 6075 ft | 267 kts | 277° |
| 2026-05-07 08:59 | 52.45476 | 16.58421 | 6954 ft | 274 kts | 276° |
| 2026-05-07 08:59 | 52.45708 | 16.55294 | 7883 ft | 278 kts | 275° |
| 2026-05-07 08:59 | 52.45946 | 16.52123 | 8827 ft | 282 kts | 275° |
| 2026-05-07 09:00 | 52.46191 | 16.48907 | 9763 ft | 286 kts | 274° |
| 2026-05-07 09:00 | 52.46444 | 16.45610 | 10398 ft | 301 kts | 274° |
| 2026-05-07 09:00 | 52.46715 | 16.42066 | 10719 ft | 325 kts | 274° |
| 2026-05-07 09:00 | 52.47004 | 16.38270 | 11071 ft | 345 kts | 274° |
| 2026-05-07 09:01 | 52.47306 | 16.34323 | 11756 ft | 352 kts | 274° |
| 2026-05-07 09:01 | 52.47611 | 16.30309 | 12527 ft | 356 kts | 274° |
| 2026-05-07 09:01 | 52.47918 | 16.26255 | 13295 ft | 360 kts | 274° |
| 2026-05-07 09:01 | 52.48228 | 16.22150 | 14047 ft | 364 kts | 274° |
| 2026-05-07 09:02 | 52.48538 | 16.18007 | 14733 ft | 368 kts | 274° |
| 2026-05-07 09:02 | 52.48848 | 16.13824 | 15427 ft | 371 kts | 274° |
| 2026-05-07 09:02 | 52.49159 | 16.09594 | 16119 ft | 375 kts | 274° |
| 2026-05-07 09:02 | 52.49472 | 16.05330 | 16794 ft | 378 kts | 274° |
| 2026-05-07 09:03 | 52.49786 | 16.01024 | 17468 ft | 382 kts | 275° |
| 2026-05-07 09:03 | 52.50099 | 15.96728 | 18133 ft | 385 kts | 275° |
| 2026-05-07 09:03 | 52.50419 | 15.92342 | 18729 ft | 389 kts | 275° |
| 2026-05-07 09:03 | 52.50741 | 15.87916 | 19310 ft | 392 kts | 275° |
| 2026-05-07 09:04 | 52.51064 | 15.83390 | 19908 ft | 396 kts | 275° |
| 2026-05-07 09:04 | 52.51376 | 15.78941 | 20474 ft | 399 kts | 275° |
| 2026-05-07 09:04 | 52.51698 | 15.74402 | 21027 ft | 402 kts | 275° |
| 2026-05-07 09:04 | 52.52023 | 15.69813 | 21578 ft | 406 kts | 275° |
| 2026-05-07 09:05 | 52.52348 | 15.65195 | 22114 ft | 409 kts | 275° |
| 2026-05-07 09:05 | 52.52674 | 15.60527 | 22636 ft | 413 kts | 275° |
| 2026-05-07 09:05 | 52.53001 | 15.55817 | 23120 ft | 417 kts | 275° |
| 2026-05-07 09:05 | 52.53328 | 15.51068 | 23603 ft | 421 kts | 275° |
| 2026-05-07 09:06 | 52.53655 | 15.46276 | 24026 ft | 423 kts | 274° |
| 2026-05-07 09:06 | 52.53936 | 15.41451 | 24464 ft | 424 kts | 270° |
| 2026-05-07 09:06 | 52.53854 | 15.36619 | 24913 ft | 424 kts | 264° |
| 2026-05-07 09:06 | 52.53677 | 15.31772 | 25378 ft | 426 kts | 264° |
| 2026-05-07 09:07 | 52.53504 | 15.26918 | 25835 ft | 427 kts | 264° |
| 2026-05-07 09:07 | 52.53336 | 15.22039 | 26289 ft | 428 kts | 264° |
| 2026-05-07 09:07 | 52.53169 | 15.17143 | 26735 ft | 430 kts | 264° |
| 2026-05-07 09:07 | 52.52998 | 15.12239 | 27180 ft | 431 kts | 263° |
| 2026-05-07 09:08 | 52.52822 | 15.07308 | 27552 ft | 435 kts | 264° |
| 2026-05-07 09:08 | 52.52641 | 15.02323 | 27876 ft | 439 kts | 263° |
| 2026-05-07 09:08 | 52.52456 | 14.97307 | 28239 ft | 441 kts | 263° |
| 2026-05-07 09:08 | 52.52267 | 14.92264 | 28614 ft | 444 kts | 263° |
| 2026-05-07 09:09 | 52.52079 | 14.87197 | 28980 ft | 446 kts | 263° |
| 2026-05-07 09:09 | 52.51888 | 14.82097 | 29346 ft | 448 kts | 263° |
| 2026-05-07 09:09 | 52.51466 | 14.77057 | 29685 ft | 445 kts | 251° |
| 2026-05-07 09:09 | 52.50314 | 14.72384 | 30043 ft | 441 kts | 240° |
| 2026-05-07 09:10 | 52.48921 | 14.67911 | 30494 ft | 439 kts | 240° |
| 2026-05-07 09:10 | 52.47536 | 14.63460 | 30981 ft | 436 kts | 240° |
| 2026-05-07 09:10 | 52.46163 | 14.59055 | 31482 ft | 433 kts | 239° |
| 2026-05-07 09:10 | 52.44794 | 14.54680 | 31993 ft | 429 kts | 239° |
| 2026-05-07 09:11 | 52.43432 | 14.50346 | 32510 ft | 426 kts | 239° |
| 2026-05-07 09:11 | 52.42077 | 14.46057 | 33023 ft | 422 kts | 239° |
| 2026-05-07 09:11 | 52.40727 | 14.41791 | 33544 ft | 419 kts | 239° |
| 2026-05-07 09:11 | 52.39390 | 14.37567 | 34047 ft | 416 kts | 239° |
| 2026-05-07 09:12 | 52.38066 | 14.33380 | 34445 ft | 414 kts | 239° |
| 2026-05-07 09:12 | 52.36738 | 14.29188 | 34720 ft | 416 kts | 239° |
| 2026-05-07 09:12 | 52.35401 | 14.24977 | 34958 ft | 418 kts | 239° |
| 2026-05-07 09:12 | 52.34058 | 14.20755 | 35221 ft | 419 kts | 239° |
| 2026-05-07 09:13 | 52.32712 | 14.16522 | 35481 ft | 420 kts | 239° |
| 2026-05-07 09:13 | 52.31361 | 14.12281 | 35737 ft | 421 kts | 239° |
| 2026-05-07 09:13 | 52.30007 | 14.08036 | 35981 ft | 422 kts | 240° |
| 2026-05-07 09:13 | 52.28648 | 14.03778 | 36237 ft | 423 kts | 240° |
| 2026-05-07 09:14 | 52.27287 | 13.99519 | 36477 ft | 424 kts | 240° |
| 2026-05-07 09:14 | 52.25916 | 13.95250 | 36738 ft | 425 kts | 240° |
| 2026-05-07 09:14 | 52.24541 | 13.90983 | 36962 ft | 426 kts | 240° |
| 2026-05-07 09:14 | 52.23157 | 13.86700 | 37171 ft | 427 kts | 240° |
| 2026-05-07 09:15 | 52.21771 | 13.82413 | 37391 ft | 428 kts | 240° |
| 2026-05-07 09:15 | 52.20402 | 13.78177 | 37617 ft | 428 kts | 240° |
| 2026-05-07 09:15 | 52.19011 | 13.73879 | 37806 ft | 429 kts | 240° |
| 2026-05-07 09:15 | 52.17612 | 13.69564 | 37966 ft | 431 kts | 240° |
| 2026-05-07 09:16 | 52.14795 | 13.60915 | 37994 ft | 433 kts | 240° |
| 2026-05-07 09:16 | 52.11967 | 13.52255 | 37993 ft | 433 kts | 240° |
| 2026-05-07 09:17 | 52.09143 | 13.43608 | 37987 ft | 433 kts | 240° |
| 2026-05-07 09:17 | 52.06302 | 13.34975 | 38010 ft | 433 kts | 240° |
| 2026-05-07 09:18 | 52.03515 | 13.26532 | 37988 ft | 434 kts | 240° |
| 2026-05-07 09:18 | 52.00659 | 13.17901 | 37968 ft | 434 kts | 240° |
| 2026-05-07 09:19 | 51.97787 | 13.09254 | 37966 ft | 435 kts | 240° |
| 2026-05-07 09:19 | 51.94906 | 13.00622 | 37968 ft | 436 kts | 240° |
| 2026-05-07 09:20 | 51.92015 | 12.91995 | 37974 ft | 436 kts | 240° |
| 2026-05-07 09:20 | 51.89122 | 12.83361 | 37975 ft | 436 kts | 240° |
| 2026-05-07 09:21 | 51.86218 | 12.74750 | 37995 ft | 436 kts | 240° |
| 2026-05-07 09:21 | 51.83306 | 12.66142 | 37984 ft | 436 kts | 240° |
| 2026-05-07 09:22 | 51.80386 | 12.57528 | 37979 ft | 437 kts | 240° |
| 2026-05-07 09:22 | 51.78927 | 12.53228 | 37839 ft | 435 kts | 240° |
| 2026-05-07 09:22 | 51.77486 | 12.48999 | 37615 ft | 425 kts | 240° |
| 2026-05-07 09:23 | 51.76070 | 12.44852 | 37257 ft | 419 kts | 239° |
| 2026-05-07 09:23 | 51.74670 | 12.40751 | 36730 ft | 416 kts | 239° |
| 2026-05-07 09:23 | 51.73277 | 12.36677 | 36164 ft | 414 kts | 239° |
| 2026-05-07 09:23 | 51.71794 | 12.32704 | 35590 ft | 412 kts | 236° |
| 2026-05-07 09:24 | 51.70217 | 12.28859 | 35005 ft | 411 kts | 234° |
| 2026-05-07 09:24 | 51.68595 | 12.25073 | 34427 ft | 410 kts | 233° |
| 2026-05-07 09:24 | 51.66948 | 12.21328 | 33819 ft | 409 kts | 233° |
| 2026-05-07 09:24 | 51.65293 | 12.17595 | 33090 ft | 409 kts | 233° |
| 2026-05-07 09:25 | 51.63636 | 12.13841 | 32245 ft | 414 kts | 233° |
| 2026-05-07 09:25 | 51.61965 | 12.10018 | 31290 ft | 422 kts | 233° |
| 2026-05-07 09:25 | 51.60266 | 12.06106 | 30362 ft | 430 kts | 233° |
| 2026-05-07 09:25 | 51.58546 | 12.02134 | 29327 ft | 436 kts | 233° |
| 2026-05-07 09:26 | 51.56799 | 11.98097 | 28277 ft | 441 kts | 233° |
| 2026-05-07 09:26 | 51.55064 | 11.94104 | 27396 ft | 442 kts | 233° |
| 2026-05-07 09:26 | 51.53300 | 11.90057 | 27089 ft | 444 kts | 233° |
| 2026-05-07 09:26 | 51.51525 | 11.85990 | 26933 ft | 444 kts | 233° |
| 2026-05-07 09:27 | 51.49748 | 11.81923 | 26987 ft | 445 kts | 233° |
| 2026-05-07 09:27 | 51.47968 | 11.77851 | 26983 ft | 446 kts | 233° |
| 2026-05-07 09:27 | 51.44401 | 11.69715 | 26984 ft | 446 kts | 233° |
| 2026-05-07 09:28 | 51.42614 | 11.65657 | 26984 ft | 446 kts | 233° |
| 2026-05-07 09:28 | 51.40824 | 11.61601 | 26984 ft | 445 kts | 233° |
| 2026-05-07 09:28 | 51.39035 | 11.57554 | 26984 ft | 445 kts | 233° |
| 2026-05-07 09:28 | 51.37848 | 11.54870 | 26988 ft | 445 kts | 233° |
| 2026-05-07 09:29 | 51.36053 | 11.50816 | 26981 ft | 446 kts | 233° |
| 2026-05-07 09:29 | 51.33680 | 11.45459 | 26962 ft | 446 kts | 233° |
| 2026-05-07 09:29 | 51.31886 | 11.41415 | 26961 ft | 446 kts | 233° |
| 2026-05-07 09:29 | 51.30673 | 11.38681 | 26956 ft | 446 kts | 233° |
| 2026-05-07 09:30 | 51.28871 | 11.34639 | 26957 ft | 447 kts | 232° |
| 2026-05-07 09:30 | 51.27068 | 11.30604 | 26961 ft | 446 kts | 232° |
| 2026-05-07 09:30 | 51.25287 | 11.26622 | 26966 ft | 446 kts | 232° |
| 2026-05-07 09:30 | 51.23485 | 11.22596 | 26952 ft | 446 kts | 232° |
| 2026-05-07 09:31 | 51.21681 | 11.18569 | 26959 ft | 446 kts | 232° |
| 2026-05-07 09:31 | 51.19877 | 11.14548 | 26961 ft | 446 kts | 232° |
| 2026-05-07 09:31 | 51.18068 | 11.10530 | 26959 ft | 446 kts | 232° |
| 2026-05-07 09:31 | 51.16259 | 11.06514 | 26958 ft | 446 kts | 232° |
| 2026-05-07 09:32 | 51.14446 | 11.02488 | 26956 ft | 446 kts | 232° |
| 2026-05-07 09:32 | 51.12635 | 10.98469 | 26958 ft | 445 kts | 232° |
| 2026-05-07 09:32 | 51.10829 | 10.94474 | 26950 ft | 445 kts | 232° |
| 2026-05-07 09:32 | 51.09011 | 10.90464 | 26950 ft | 447 kts | 232° |
| 2026-05-07 09:33 | 51.07192 | 10.86460 | 26946 ft | 447 kts | 232° |
| 2026-05-07 09:33 | 51.05367 | 10.82450 | 26958 ft | 448 kts | 233° |
| 2026-05-07 09:33 | 51.03538 | 10.78433 | 26953 ft | 449 kts | 233° |
| 2026-05-07 09:33 | 51.01713 | 10.74422 | 26950 ft | 449 kts | 233° |
| 2026-05-07 09:34 | 50.99882 | 10.70398 | 26946 ft | 449 kts | 233° |
| 2026-05-07 09:34 | 50.98052 | 10.66388 | 26946 ft | 449 kts | 233° |
| 2026-05-07 09:34 | 50.96214 | 10.62372 | 26946 ft | 449 kts | 233° |
| 2026-05-07 09:34 | 50.94373 | 10.58361 | 26947 ft | 450 kts | 232° |
| 2026-05-07 09:35 | 50.92527 | 10.54351 | 26947 ft | 450 kts | 232° |
| 2026-05-07 09:35 | 50.90685 | 10.50348 | 26944 ft | 450 kts | 232° |
| 2026-05-07 09:35 | 50.88842 | 10.46347 | 26945 ft | 450 kts | 232° |
| 2026-05-07 09:35 | 50.86995 | 10.42341 | 26952 ft | 450 kts | 233° |
| 2026-05-07 09:36 | 50.85150 | 10.38352 | 26959 ft | 449 kts | 233° |
| 2026-05-07 09:36 | 50.83304 | 10.34364 | 26964 ft | 448 kts | 234° |
| 2026-05-07 09:36 | 50.81464 | 10.30394 | 26960 ft | 448 kts | 234° |
| 2026-05-07 09:36 | 50.79617 | 10.26415 | 26955 ft | 448 kts | 234° |
| 2026-05-07 09:37 | 50.77773 | 10.22452 | 26958 ft | 448 kts | 234° |
| 2026-05-07 09:37 | 50.75926 | 10.18486 | 26950 ft | 448 kts | 234° |
| 2026-05-07 09:37 | 50.74105 | 10.14581 | 26962 ft | 447 kts | 234° |
| 2026-05-07 09:37 | 50.72256 | 10.10625 | 26960 ft | 448 kts | 234° |
| 2026-05-07 09:38 | 50.70378 | 10.06611 | 26971 ft | 448 kts | 234° |
| 2026-05-07 09:38 | 50.68549 | 10.02712 | 26964 ft | 448 kts | 234° |
| 2026-05-07 09:38 | 50.66692 | 9.98760 | 26964 ft | 448 kts | 234° |
| 2026-05-07 09:38 | 50.64839 | 9.94813 | 26960 ft | 447 kts | 234° |
| 2026-05-07 09:39 | 50.62986 | 9.90872 | 26962 ft | 447 kts | 234° |
| 2026-05-07 09:39 | 50.61134 | 9.86941 | 26961 ft | 447 kts | 234° |
| 2026-05-07 09:39 | 50.59366 | 9.83197 | 26962 ft | 447 kts | 233° |
| 2026-05-07 09:39 | 50.57509 | 9.79271 | 26950 ft | 447 kts | 234° |
| 2026-05-07 09:40 | 50.55651 | 9.75347 | 26959 ft | 447 kts | 234° |
| 2026-05-07 09:40 | 50.53791 | 9.71427 | 26843 ft | 448 kts | 234° |
| 2026-05-07 09:40 | 50.51926 | 9.67507 | 26577 ft | 447 kts | 234° |
| 2026-05-07 09:40 | 50.50061 | 9.63589 | 26320 ft | 448 kts | 234° |
| 2026-05-07 09:41 | 50.48315 | 9.59532 | 26058 ft | 448 kts | 242° |
| 2026-05-07 09:41 | 50.46987 | 9.55130 | 25807 ft | 445 kts | 250° |
| 2026-05-07 09:41 | 50.46051 | 9.50525 | 25326 ft | 443 kts | 255° |
| 2026-05-07 09:41 | 50.45174 | 9.45891 | 24582 ft | 441 kts | 255° |
| 2026-05-07 09:42 | 50.44306 | 9.41298 | 23818 ft | 437 kts | 255° |
| 2026-05-07 09:42 | 50.43448 | 9.36754 | 22974 ft | 432 kts | 255° |
| 2026-05-07 09:42 | 50.42597 | 9.32263 | 22099 ft | 427 kts | 255° |
| 2026-05-07 09:42 | 50.41747 | 9.27833 | 21215 ft | 422 kts | 254° |
| 2026-05-07 09:43 | 50.40679 | 9.23594 | 20203 ft | 416 kts | 240° |
| 2026-05-07 09:43 | 50.38880 | 9.20103 | 19204 ft | 411 kts | 222° |
| 2026-05-07 09:43 | 50.36488 | 9.17717 | 18238 ft | 408 kts | 203° |
| 2026-05-07 09:43 | 50.33749 | 9.16670 | 17150 ft | 405 kts | 184° |
| 2026-05-07 09:44 | 50.30963 | 9.17068 | 16100 ft | 402 kts | 165° |
| 2026-05-07 09:44 | 50.28384 | 9.18697 | 15086 ft | 398 kts | 154° |
| 2026-05-07 09:44 | 50.25902 | 9.20575 | 14102 ft | 394 kts | 154° |
| 2026-05-07 09:44 | 50.23458 | 9.22442 | 13185 ft | 387 kts | 154° |
| 2026-05-07 09:45 | 50.21057 | 9.24284 | 12237 ft | 382 kts | 154° |
| 2026-05-07 09:45 | 50.18692 | 9.26103 | 11329 ft | 376 kts | 154° |
| 2026-05-07 09:45 | 50.16353 | 9.27903 | 10637 ft | 373 kts | 154° |
| 2026-05-07 09:45 | 50.14052 | 9.29676 | 9980 ft | 362 kts | 154° |
| 2026-05-07 09:46 | 50.11838 | 9.31386 | 9312 ft | 348 kts | 154° |
| 2026-05-07 09:46 | 50.09632 | 9.32717 | 8652 ft | 334 kts | 170° |
| 2026-05-07 09:46 | 50.07367 | 9.32710 | 8006 ft | 321 kts | 194° |
| 2026-05-07 09:46 | 50.05379 | 9.31341 | 7377 ft | 309 kts | 219° |
| 2026-05-07 09:47 | 50.04000 | 9.28904 | 6768 ft | 296 kts | 244° |
| 2026-05-07 09:47 | 50.03256 | 9.25985 | 6201 ft | 286 kts | 253° |
| 2026-05-07 09:47 | 50.02643 | 9.23126 | 5837 ft | 270 kts | 253° |
| 2026-05-07 09:47 | 50.02075 | 9.20392 | 5325 ft | 265 kts | 254° |
| 2026-05-07 09:48 | 50.01620 | 9.17645 | 4966 ft | 260 kts | 268° |
| 2026-05-07 09:48 | 50.01939 | 9.14950 | 4563 ft | 254 kts | 297° |
| 2026-05-07 09:48 | 50.03065 | 9.12895 | 4089 ft | 252 kts | 328° |
| 2026-05-07 09:48 | 50.04644 | 9.11871 | 3975 ft | 239 kts | 343° |
| 2026-05-07 09:49 | 50.06180 | 9.11155 | 3983 ft | 224 kts | 344° |
| 2026-05-07 09:49 | 50.07669 | 9.10482 | 3981 ft | 222 kts | 344° |
| 2026-05-07 09:49 | 50.09156 | 9.09814 | 3986 ft | 222 kts | 344° |
| 2026-05-07 09:49 | 50.10639 | 9.09147 | 3988 ft | 222 kts | 344° |
| 2026-05-07 09:50 | 50.12048 | 9.08199 | 3988 ft | 223 kts | 322° |
| 2026-05-07 09:50 | 50.12935 | 9.06241 | 3989 ft | 226 kts | 291° |
| 2026-05-07 09:50 | 50.13345 | 9.03871 | 3988 ft | 227 kts | 285° |
| 2026-05-07 09:50 | 50.13671 | 9.01466 | 3985 ft | 227 kts | 280° |
| 2026-05-07 09:51 | 50.13527 | 8.99008 | 3990 ft | 232 kts | 254° |
| 2026-05-07 09:51 | 50.12974 | 8.96638 | 3992 ft | 232 kts | 252° |
| 2026-05-07 09:51 | 50.12434 | 8.94355 | 3990 ft | 217 kts | 252° |
| 2026-05-07 09:51 | 50.11937 | 8.92239 | 4014 ft | 199 kts | 252° |
| 2026-05-07 09:52 | 50.11473 | 8.90259 | 3995 ft | 191 kts | 252° |
| 2026-05-07 09:52 | 50.11018 | 8.88315 | 3996 ft | 190 kts | 253° |
| 2026-05-07 09:52 | 50.10564 | 8.86383 | 3994 ft | 190 kts | 253° |
| 2026-05-07 09:52 | 50.10109 | 8.84447 | 3849 ft | 190 kts | 253° |
| 2026-05-07 09:53 | 50.09655 | 8.82520 | 3621 ft | 189 kts | 253° |
| 2026-05-07 09:53 | 50.09203 | 8.80601 | 3376 ft | 188 kts | 253° |
| 2026-05-07 09:53 | 50.08758 | 8.78713 | 3125 ft | 187 kts | 253° |
| 2026-05-07 09:53 | 50.08303 | 8.76788 | 2868 ft | 187 kts | 252° |
| 2026-05-07 09:54 | 50.07864 | 8.74928 | 2616 ft | 186 kts | 252° |
| 2026-05-07 09:54 | 50.07418 | 8.73043 | 2373 ft | 184 kts | 252° |
| 2026-05-07 09:54 | 50.06981 | 8.71198 | 2114 ft | 177 kts | 252° |
| 2026-05-07 09:54 | 50.06568 | 8.69457 | 1880 ft | 166 kts | 252° |
| 2026-05-07 09:55 | 50.06183 | 8.67837 | 1667 ft | 151 kts | 252° |
| 2026-05-07 09:55 | 50.05836 | 8.66375 | 1453 ft | 137 kts | 252° |
| 2026-05-07 09:55 | 50.05516 | 8.65024 | 1279 ft | 131 kts | 252° |
| 2026-05-07 09:55 | 50.05204 | 8.63710 | 1096 ft | 127 kts | 252° |
| 2026-05-07 09:56 | 50.04902 | 8.62426 | 942 ft | 125 kts | 253° |
| 2026-05-07 09:56 | 50.04602 | 8.61159 | 759 ft | 124 kts | 251° |
| 2026-05-07 09:56 | 50.04303 | 8.59907 | 584 ft | 123 kts | 252° |
| 2026-05-07 09:56 | 50.04003 | 8.58647 | 409 ft | 124 kts | 252° |
| 2026-05-07 09:57 | 50.03730 | 8.57497 | 361 ft | 96 kts | 249° |
| 2026-05-07 09:57 | 50.03557 | 8.56774 | 353 ft | 47 kts | 250° |
| 2026-05-07 09:57 | 50.03465 | 8.56386 | 351 ft | 38 kts | 250° |
| 2026-05-07 09:57 | 50.03440 | 8.56035 | 348 ft | 31 kts | 276° |
| 2026-05-07 09:58 | 50.03483 | 8.55726 | 347 ft | 23 kts | 311° |
| 2026-05-07 09:58 | 50.03569 | 8.55792 | 353 ft | 17 kts | 68° |
| 2026-05-07 09:58 | 50.03618 | 8.55995 | 355 ft | 24 kts | 69° |
| 2026-05-07 09:58 | 50.03685 | 8.56287 | 356 ft | 33 kts | 71° |
| 2026-05-07 09:59 | 50.03777 | 8.56665 | 354 ft | 40 kts | 69° |
| 2026-05-07 09:59 | 50.03870 | 8.57052 | 362 ft | 36 kts | 69° |
| 2026-05-07 09:59 | 50.03953 | 8.57402 | 370 ft | 33 kts | 70° |
| 2026-05-07 09:59 | 50.04032 | 8.57731 | 370 ft | 32 kts | 69° |
| 2026-05-07 10:00 | 50.04110 | 8.58056 | 367 ft | 32 kts | 69° |
| 2026-05-07 10:00 | 50.04187 | 8.58378 | 372 ft | 32 kts | 69° |
| 2026-05-07 10:00 | 50.04264 | 8.58699 | 371 ft | 32 kts | 70° |
| 2026-05-07 10:00 | 50.04344 | 8.59031 | 377 ft | 34 kts | 69° |
| 2026-05-07 10:01 | 50.04428 | 8.59378 | 376 ft | 33 kts | 69° |
| 2026-05-07 10:01 | 50.04496 | 8.59472 | 375 ft | 12 kts | 355° |
| 2026-05-07 10:01 | 50.04622 | 8.59464 | 373 ft | 25 kts | 357° |
| 2026-05-07 10:01 | 50.04805 | 8.59381 | 371 ft | 29 kts | 340° |
| 2026-05-07 10:02 | 50.04974 | 8.59353 | 366 ft | 24 kts | 339° |
| 2026-05-07 10:02 | 50.05073 | 8.59184 | 365 ft | 25 kts | 251° |
| 2026-05-07 10:02 | 50.05020 | 8.58964 | 360 ft | 8 kts | 249° |
| 2026-05-07 10:02 | 50.05001 | 8.58912 | 360 ft | 7 kts | 216° |
| 2026-05-07 10:03 | 50.04953 | 8.58928 | 366 ft | 7 kts | 160° |
| 2026-05-07 10:03 | 50.04927 | 8.58943 | 365 ft | 0 kts | 160° |